sensor_id;sensor_type;location;lat;lon;timestamp;temperature;humidity
67364;HTU21D;54250;45.572;38.086;2023-08-17T00:00:10;23.45;64.15
67364;HTU21D;54250;45.572;38.086;2023-08-17T00:02:42;23.41;64.36
67364;HTU21D;54250;45.572;38.086;2023-08-17T00:05:08;23.38;64.27
67364;HTU21D;54250;45.572;38.086;2023-08-17T00:07:34;23.38;64.28
67364;HTU21D;54250;45.572;38.086;2023-08-17T00:10:01;23.34;64.30
67364;HTU21D;54250;45.572;38.086;2023-08-17T00:12:27;23.25;64.42
67364;HTU21D;54250;45.572;38.086;2023-08-17T00:14:53;23.23;64.52
67364;HTU21D;54250;45.572;38.086;2023-08-17T00:17:19;23.20;64.53
67364;HTU21D;54250;45.572;38.086;2023-08-17T00:19:46;23.17;64.47
67364;HTU21D;54250;45.572;38.086;2023-08-17T00:22:13;23.12;64.53
67364;HTU21D;54250;45.572;38.086;2023-08-17T00:24:39;23.13;64.56
67364;HTU21D;54250;45.572;38.086;2023-08-17T00:27:07;23.08;64.57
67364;HTU21D;54250;45.572;38.086;2023-08-17T00:29:33;23.11;64.58
67364;HTU21D;54250;45.572;38.086;2023-08-17T00:32:01;23.12;64.58
67364;HTU21D;54250;45.572;38.086;2023-08-17T00:34:27;23.09;64.75
67364;HTU21D;54250;45.572;38.086;2023-08-17T00:36:58;23.00;64.81
67364;HTU21D;54250;45.572;38.086;2023-08-17T00:39:24;22.94;65.02
67364;HTU21D;54250;45.572;38.086;2023-08-17T00:41:50;22.91;65.04
67364;HTU21D;54250;45.572;38.086;2023-08-17T00:44:17;22.87;65.12
67364;HTU21D;54250;45.572;38.086;2023-08-17T00:46:43;22.82;65.32
67364;HTU21D;54250;45.572;38.086;2023-08-17T00:49:10;22.75;65.45
67364;HTU21D;54250;45.572;38.086;2023-08-17T00:51:37;22.71;65.57
67364;HTU21D;54250;45.572;38.086;2023-08-17T00:54:04;22.71;65.55
67364;HTU21D;54250;45.572;38.086;2023-08-17T00:56:30;22.69;65.69
67364;HTU21D;54250;45.572;38.086;2023-08-17T00:58:57;22.66;65.81
67364;HTU21D;54250;45.572;38.086;2023-08-17T01:01:22;22.63;65.75
67364;HTU21D;54250;45.572;38.086;2023-08-17T01:03:48;22.63;65.78
67364;HTU21D;54250;45.572;38.086;2023-08-17T01:06:15;22.61;65.81
67364;HTU21D;54250;45.572;38.086;2023-08-17T01:08:42;22.61;65.81
67364;HTU21D;54250;45.572;38.086;2023-08-17T01:11:24;22.57;65.89
67364;HTU21D;54250;45.572;38.086;2023-08-17T01:16:35;22.56;65.87
67364;HTU21D;54250;45.572;38.086;2023-08-17T01:19:07;22.52;65.96
67364;HTU21D;54250;45.572;38.086;2023-08-17T01:21:49;22.57;65.85
67364;HTU21D;54250;45.572;38.086;2023-08-17T01:24:15;22.62;65.71
67364;HTU21D;54250;45.572;38.086;2023-08-17T01:26:41;22.67;65.59
67364;HTU21D;54250;45.572;38.086;2023-08-17T01:29:07;22.64;65.55
67364;HTU21D;54250;45.572;38.086;2023-08-17T01:31:42;22.61;65.69
67364;HTU21D;54250;45.572;38.086;2023-08-17T01:34:11;22.61;65.80
67364;HTU21D;54250;45.572;38.086;2023-08-17T01:36:49;22.61;65.66
67364;HTU21D;54250;45.572;38.086;2023-08-17T01:39:17;22.61;65.67
67364;HTU21D;54250;45.572;38.086;2023-08-17T01:41:45;22.65;65.53
67364;HTU21D;54250;45.572;38.086;2023-08-17T01:44:12;22.63;65.58
67364;HTU21D;54250;45.572;38.086;2023-08-17T01:46:39;22.62;65.50
67364;HTU21D;54250;45.572;38.086;2023-08-17T01:49:05;22.64;65.42
67364;HTU21D;54250;45.572;38.086;2023-08-17T01:51:30;22.67;65.30
67364;HTU21D;54250;45.572;38.086;2023-08-17T01:53:56;22.75;65.08
67364;HTU21D;54250;45.572;38.086;2023-08-17T01:56:22;22.72;65.04
67364;HTU21D;54250;45.572;38.086;2023-08-17T01:58:48;22.71;65.07
67364;HTU21D;54250;45.572;38.086;2023-08-17T02:01:14;22.67;65.16
67364;HTU21D;54250;45.572;38.086;2023-08-17T02:03:40;22.65;65.39
67364;HTU21D;54250;45.572;38.086;2023-08-17T02:06:06;22.60;65.40
67364;HTU21D;54250;45.572;38.086;2023-08-17T02:08:33;22.61;65.43
67364;HTU21D;54250;45.572;38.086;2023-08-17T02:11:00;22.58;65.47
67364;HTU21D;54250;45.572;38.086;2023-08-17T02:13:26;22.63;65.40
67364;HTU21D;54250;45.572;38.086;2023-08-17T02:15:53;22.66;65.21
67364;HTU21D;54250;45.572;38.086;2023-08-17T02:18:19;22.75;65.01
67364;HTU21D;54250;45.572;38.086;2023-08-17T02:20:45;22.82;64.79
67364;HTU21D;54250;45.572;38.086;2023-08-17T02:23:11;22.87;64.63
67364;HTU21D;54250;45.572;38.086;2023-08-17T02:25:38;22.94;64.60
67364;HTU21D;54250;45.572;38.086;2023-08-17T02:28:05;23.02;64.41
67364;HTU21D;54250;45.572;38.086;2023-08-17T02:30:31;23.11;64.24
67364;HTU21D;54250;45.572;38.086;2023-08-17T02:32:58;23.12;64.25
67364;HTU21D;54250;45.572;38.086;2023-08-17T02:35:24;23.14;64.25
67364;HTU21D;54250;45.572;38.086;2023-08-17T02:37:50;23.13;64.21
67364;HTU21D;54250;45.572;38.086;2023-08-17T02:40:16;23.09;64.33
67364;HTU21D;54250;45.572;38.086;2023-08-17T02:42:41;23.10;64.30
67364;HTU21D;54250;45.572;38.086;2023-08-17T02:45:08;23.06;64.40
67364;HTU21D;54250;45.572;38.086;2023-08-17T02:47:35;23.00;64.57
67364;HTU21D;54250;45.572;38.086;2023-08-17T02:50:01;23.02;64.53
67364;HTU21D;54250;45.572;38.086;2023-08-17T02:52:27;23.17;64.21
67364;HTU21D;54250;45.572;38.086;2023-08-17T02:54:52;23.36;63.84
67364;HTU21D;54250;45.572;38.086;2023-08-17T02:57:19;23.57;63.36
67364;HTU21D;54250;45.572;38.086;2023-08-17T02:59:45;23.85;62.81
67364;HTU21D;54250;45.572;38.086;2023-08-17T03:02:11;24.12;62.24
67364;HTU21D;54250;45.572;38.086;2023-08-17T03:04:37;24.41;61.71
67364;HTU21D;54250;45.572;38.086;2023-08-17T03:07:03;24.76;61.02
67364;HTU21D;54250;45.572;38.086;2023-08-17T03:09:29;25.02;60.46
67364;HTU21D;54250;45.572;38.086;2023-08-17T03:11:55;25.27;59.96
67364;HTU21D;54250;45.572;38.086;2023-08-17T03:14:22;25.71;59.23
67364;HTU21D;54250;45.572;38.086;2023-08-17T03:16:47;26.18;58.32
67364;HTU21D;54250;45.572;38.086;2023-08-17T03:19:14;26.41;57.66
67364;HTU21D;54250;45.572;38.086;2023-08-17T03:21:43;26.67;57.37
67364;HTU21D;54250;45.572;38.086;2023-08-17T03:24:10;27.15;56.32
67364;HTU21D;54250;45.572;38.086;2023-08-17T03:26:36;27.58;55.52
67364;HTU21D;54250;45.572;38.086;2023-08-17T03:29:02;27.85;54.83
67364;HTU21D;54250;45.572;38.086;2023-08-17T03:31:28;27.81;54.84
67364;HTU21D;54250;45.572;38.086;2023-08-17T03:33:55;27.70;55.20
67364;HTU21D;54250;45.572;38.086;2023-08-17T03:36:21;28.31;53.94
67364;HTU21D;54250;45.572;38.086;2023-08-17T03:38:48;29.00;52.49
67364;HTU21D;54250;45.572;38.086;2023-08-17T03:41:13;29.62;51.38
67364;HTU21D;54250;45.572;38.086;2023-08-17T03:43:40;30.18;50.39
67364;HTU21D;54250;45.572;38.086;2023-08-17T03:46:06;30.76;49.24
67364;HTU21D;54250;45.572;38.086;2023-08-17T03:48:31;30.96;48.41
67364;HTU21D;54250;45.572;38.086;2023-08-17T03:50:57;31.27;47.89
67364;HTU21D;54250;45.572;38.086;2023-08-17T03:53:23;31.59;47.00
67364;HTU21D;54250;45.572;38.086;2023-08-17T03:55:50;31.96;46.28
67364;HTU21D;54250;45.572;38.086;2023-08-17T03:58:17;32.19;45.86
67364;HTU21D;54250;45.572;38.086;2023-08-17T04:00:51;32.29;45.35
67364;HTU21D;54250;45.572;38.086;2023-08-17T04:03:22;32.83;44.51
67364;HTU21D;54250;45.572;38.086;2023-08-17T04:05:48;33.20;43.50
67364;HTU21D;54250;45.572;38.086;2023-08-17T04:08:14;33.23;43.20
67364;HTU21D;54250;45.572;38.086;2023-08-17T04:10:40;33.74;42.71
67364;HTU21D;54250;45.572;38.086;2023-08-17T04:13:06;33.90;42.19
67364;HTU21D;54250;45.572;38.086;2023-08-17T04:15:33;33.73;42.03
67364;HTU21D;54250;45.572;38.086;2023-08-17T04:17:58;33.73;41.97
67364;HTU21D;54250;45.572;38.086;2023-08-17T04:20:25;34.00;41.39
67364;HTU21D;54250;45.572;38.086;2023-08-17T04:22:51;34.02;41.06
67364;HTU21D;54250;45.572;38.086;2023-08-17T04:25:18;34.31;40.50
67364;HTU21D;54250;45.572;38.086;2023-08-17T04:27:44;34.73;39.95
67364;HTU21D;54250;45.572;38.086;2023-08-17T04:30:10;35.10;39.07
67364;HTU21D;54250;45.572;38.086;2023-08-17T04:32:47;35.06;39.24
67364;HTU21D;54250;45.572;38.086;2023-08-17T04:35:19;35.29;38.95
67364;HTU21D;54250;45.572;38.086;2023-08-17T04:37:45;35.84;38.02
67364;HTU21D;54250;45.572;38.086;2023-08-17T04:40:13;36.00;37.59
67364;HTU21D;54250;45.572;38.086;2023-08-17T04:42:40;35.77;37.79
67364;HTU21D;54250;45.572;38.086;2023-08-17T04:45:07;36.18;37.46
67364;HTU21D;54250;45.572;38.086;2023-08-17T04:47:37;36.82;36.68
67364;HTU21D;54250;45.572;38.086;2023-08-17T04:50:03;37.20;36.19
67364;HTU21D;54250;45.572;38.086;2023-08-17T04:52:29;37.76;35.15
67364;HTU21D;54250;45.572;38.086;2023-08-17T04:54:55;38.17;34.52
67364;HTU21D;54250;45.572;38.086;2023-08-17T04:57:21;38.51;34.32
67364;HTU21D;54250;45.572;38.086;2023-08-17T04:59:47;38.58;34.10
67364;HTU21D;54250;45.572;38.086;2023-08-17T05:02:14;38.20;34.41
67364;HTU21D;54250;45.572;38.086;2023-08-17T05:04:41;36.19;36.88
67364;HTU21D;54250;45.572;38.086;2023-08-17T05:07:08;34.52;39.78
67364;HTU21D;54250;45.572;38.086;2023-08-17T05:09:34;33.67;40.98
67364;HTU21D;54250;45.572;38.086;2023-08-17T05:12:00;33.01;41.91
67364;HTU21D;54250;45.572;38.086;2023-08-17T05:14:26;33.58;41.74
67364;HTU21D;54250;45.572;38.086;2023-08-17T05:16:53;35.77;37.69
67364;HTU21D;54250;45.572;38.086;2023-08-17T05:19:19;37.49;35.15
67364;HTU21D;54250;45.572;38.086;2023-08-17T05:21:45;39.03;33.57
67364;HTU21D;54250;45.572;38.086;2023-08-17T05:24:11;40.37;32.14
67364;HTU21D;54250;45.572;38.086;2023-08-17T05:26:39;41.77;30.87
67364;HTU21D;54250;45.572;38.086;2023-08-17T05:29:05;42.62;29.67
67364;HTU21D;54250;45.572;38.086;2023-08-17T05:31:32;42.79;29.32
67364;HTU21D;54250;45.572;38.086;2023-08-17T05:33:57;42.99;29.04
67364;HTU21D;54250;45.572;38.086;2023-08-17T05:36:24;43.46;28.24
67364;HTU21D;54250;45.572;38.086;2023-08-17T05:38:50;43.32;28.54
67364;HTU21D;54250;45.572;38.086;2023-08-17T05:41:16;42.58;28.39
67364;HTU21D;54250;45.572;38.086;2023-08-17T05:43:43;43.04;28.58
67364;HTU21D;54250;45.572;38.086;2023-08-17T05:46:09;44.30;27.42
67364;HTU21D;54250;45.572;38.086;2023-08-17T05:48:35;45.12;26.33
67364;HTU21D;54250;45.572;38.086;2023-08-17T05:51:01;45.06;25.96
67364;HTU21D;54250;45.572;38.086;2023-08-17T05:53:27;45.13;26.14
67364;HTU21D;54250;45.572;38.086;2023-08-17T05:55:53;45.45;25.52
67364;HTU21D;54250;45.572;38.086;2023-08-17T05:58:19;44.47;26.35
67364;HTU21D;54250;45.572;38.086;2023-08-17T06:00:45;44.38;25.57
67364;HTU21D;54250;45.572;38.086;2023-08-17T06:03:11;43.85;25.91
67364;HTU21D;54250;45.572;38.086;2023-08-17T06:05:40;44.07;25.85
67364;HTU21D;54250;45.572;38.086;2023-08-17T06:08:06;44.40;25.87
67364;HTU21D;54250;45.572;38.086;2023-08-17T06:10:32;45.54;25.02
67364;HTU21D;54250;45.572;38.086;2023-08-17T06:12:58;46.24;24.25
67364;HTU21D;54250;45.572;38.086;2023-08-17T06:15:24;46.45;24.40
67364;HTU21D;54250;45.572;38.086;2023-08-17T06:17:50;46.60;24.04
67364;HTU21D;54250;45.572;38.086;2023-08-17T06:20:17;45.60;24.29
67364;HTU21D;54250;45.572;38.086;2023-08-17T06:22:44;45.16;24.82
67364;HTU21D;54250;45.572;38.086;2023-08-17T06:25:10;45.79;24.36
67364;HTU21D;54250;45.572;38.086;2023-08-17T06:27:36;46.38;23.63
67364;HTU21D;54250;45.572;38.086;2023-08-17T06:30:03;46.67;23.35
67364;HTU21D;54250;45.572;38.086;2023-08-17T06:32:31;46.95;22.98
67364;HTU21D;54250;45.572;38.086;2023-08-17T06:34:57;47.29;23.15
67364;HTU21D;54250;45.572;38.086;2023-08-17T06:37:23;47.81;22.35
67364;HTU21D;54250;45.572;38.086;2023-08-17T06:39:49;47.83;22.01
67364;HTU21D;54250;45.572;38.086;2023-08-17T06:42:15;47.08;22.22
67364;HTU21D;54250;45.572;38.086;2023-08-17T06:44:42;47.36;22.59
67364;HTU21D;54250;45.572;38.086;2023-08-17T06:47:07;48.02;21.98
67364;HTU21D;54250;45.572;38.086;2023-08-17T06:49:34;48.22;21.76
67364;HTU21D;54250;45.572;38.086;2023-08-17T06:52:00;48.08;21.73
67364;HTU21D;54250;45.572;38.086;2023-08-17T06:54:26;48.03;21.84
67364;HTU21D;54250;45.572;38.086;2023-08-17T06:56:52;48.03;22.02
67364;HTU21D;54250;45.572;38.086;2023-08-17T06:59:18;48.45;21.73
67364;HTU21D;54250;45.572;38.086;2023-08-17T07:01:44;48.44;21.44
67364;HTU21D;54250;45.572;38.086;2023-08-17T07:04:10;48.32;21.57
67364;HTU21D;54250;45.572;38.086;2023-08-17T07:06:36;48.16;21.87
67364;HTU21D;54250;45.572;38.086;2023-08-17T07:09:02;48.64;21.40
67364;HTU21D;54250;45.572;38.086;2023-08-17T07:11:31;49.08;20.85
67364;HTU21D;54250;45.572;38.086;2023-08-17T07:13:57;48.73;21.05
67364;HTU21D;54250;45.572;38.086;2023-08-17T07:16:23;48.71;21.05
67364;HTU21D;54250;45.572;38.086;2023-08-17T07:18:49;48.17;21.24
67364;HTU21D;54250;45.572;38.086;2023-08-17T07:21:15;47.72;21.51
67364;HTU21D;54250;45.572;38.086;2023-08-17T07:23:44;47.56;21.60
67364;HTU21D;54250;45.572;38.086;2023-08-17T07:26:11;47.80;21.43
67364;HTU21D;54250;45.572;38.086;2023-08-17T07:28:37;48.13;21.34
67364;HTU21D;54250;45.572;38.086;2023-08-17T07:31:03;48.12;20.96
67364;HTU21D;54250;45.572;38.086;2023-08-17T07:33:29;47.70;21.37
67364;HTU21D;54250;45.572;38.086;2023-08-17T07:35:55;47.78;21.39
67364;HTU21D;54250;45.572;38.086;2023-08-17T07:38:21;48.21;20.89
67364;HTU21D;54250;45.572;38.086;2023-08-17T07:40:47;48.43;21.08
67364;HTU21D;54250;45.572;38.086;2023-08-17T07:43:13;48.44;20.56
67364;HTU21D;54250;45.572;38.086;2023-08-17T07:45:39;48.00;20.87
67364;HTU21D;54250;45.572;38.086;2023-08-17T07:48:05;48.51;20.45
67364;HTU21D;54250;45.572;38.086;2023-08-17T07:50:31;48.82;20.16
67364;HTU21D;54250;45.572;38.086;2023-08-17T07:52:57;48.31;20.67
67364;HTU21D;54250;45.572;38.086;2023-08-17T07:55:23;48.07;20.44
67364;HTU21D;54250;45.572;38.086;2023-08-17T07:57:50;47.27;20.95
67364;HTU21D;54250;45.572;38.086;2023-08-17T08:00:16;47.22;21.02
67364;HTU21D;54250;45.572;38.086;2023-08-17T08:02:42;46.98;21.33
67364;HTU21D;54250;45.572;38.086;2023-08-17T08:05:08;47.58;21.19
67364;HTU21D;54250;45.572;38.086;2023-08-17T08:07:34;48.43;20.27
67364;HTU21D;54250;45.572;38.086;2023-08-17T08:10:00;48.25;20.23
67364;HTU21D;54250;45.572;38.086;2023-08-17T08:12:26;48.06;20.42
67364;HTU21D;54250;45.572;38.086;2023-08-17T08:14:52;48.21;20.44
67364;HTU21D;54250;45.572;38.086;2023-08-17T08:17:18;47.71;20.43
67364;HTU21D;54250;45.572;38.086;2023-08-17T08:19:45;46.92;20.94
67364;HTU21D;54250;45.572;38.086;2023-08-17T08:22:10;47.11;21.08
67364;HTU21D;54250;45.572;38.086;2023-08-17T08:24:36;47.42;20.65
67364;HTU21D;54250;45.572;38.086;2023-08-17T08:27:02;47.23;20.46
67364;HTU21D;54250;45.572;38.086;2023-08-17T08:29:28;47.08;20.70
67364;HTU21D;54250;45.572;38.086;2023-08-17T08:31:54;47.21;20.69
67364;HTU21D;54250;45.572;38.086;2023-08-17T08:34:22;47.51;20.68
67364;HTU21D;54250;45.572;38.086;2023-08-17T08:36:48;47.75;20.21
67364;HTU21D;54250;45.572;38.086;2023-08-17T08:39:15;47.46;20.44
67364;HTU21D;54250;45.572;38.086;2023-08-17T08:41:41;47.52;20.37
67364;HTU21D;54250;45.572;38.086;2023-08-17T08:44:07;47.93;20.12
67364;HTU21D;54250;45.572;38.086;2023-08-17T08:46:33;47.65;20.02
67364;HTU21D;54250;45.572;38.086;2023-08-17T08:49:03;46.98;20.40
67364;HTU21D;54250;45.572;38.086;2023-08-17T08:51:33;46.59;20.81
67364;HTU21D;54250;45.572;38.086;2023-08-17T08:54:01;46.60;20.65
67364;HTU21D;54250;45.572;38.086;2023-08-17T08:56:32;46.72;20.83
67364;HTU21D;54250;45.572;38.086;2023-08-17T08:59:01;47.09;20.47
67364;HTU21D;54250;45.572;38.086;2023-08-17T09:01:30;47.19;20.18
67364;HTU21D;54250;45.572;38.086;2023-08-17T09:03:59;46.81;20.24
67364;HTU21D;54250;45.572;38.086;2023-08-17T09:06:26;46.54;20.38
67364;HTU21D;54250;45.572;38.086;2023-08-17T09:08:53;46.83;20.70
67364;HTU21D;54250;45.572;38.086;2023-08-17T09:11:19;46.51;20.14
67364;HTU21D;54250;45.572;38.086;2023-08-17T09:13:45;45.86;20.53
67364;HTU21D;54250;45.572;38.086;2023-08-17T09:16:10;45.53;20.71
67364;HTU21D;54250;45.572;38.086;2023-08-17T09:18:36;45.17;21.10
67364;HTU21D;54250;45.572;38.086;2023-08-17T09:21:03;45.22;21.64
67364;HTU21D;54250;45.572;38.086;2023-08-17T09:23:29;45.10;21.15
67364;HTU21D;54250;45.572;38.086;2023-08-17T09:25:54;45.03;21.52
67364;HTU21D;54250;45.572;38.086;2023-08-17T09:28:24;44.66;21.89
67364;HTU21D;54250;45.572;38.086;2023-08-17T09:30:54;44.71;22.02
67364;HTU21D;54250;45.572;38.086;2023-08-17T09:33:25;44.42;22.26
67364;HTU21D;54250;45.572;38.086;2023-08-17T09:35:54;44.00;22.34
67364;HTU21D;54250;45.572;38.086;2023-08-17T09:38:20;43.63;22.94
67364;HTU21D;54250;45.572;38.086;2023-08-17T09:40:47;43.53;22.88
67364;HTU21D;54250;45.572;38.086;2023-08-17T09:43:16;42.58;23.67
67364;HTU21D;54250;45.572;38.086;2023-08-17T09:45:44;41.51;25.08
67364;HTU21D;54250;45.572;38.086;2023-08-17T09:48:17;40.51;26.06
67364;HTU21D;54250;45.572;38.086;2023-08-17T09:50:45;39.20;27.87
67364;HTU21D;54250;45.572;38.086;2023-08-17T09:53:15;38.26;29.30
67364;HTU21D;54250;45.572;38.086;2023-08-17T09:55:43;37.69;29.72
67364;HTU21D;54250;45.572;38.086;2023-08-17T09:58:09;37.29;30.35
67364;HTU21D;54250;45.572;38.086;2023-08-17T10:00:36;37.07;30.33
67364;HTU21D;54250;45.572;38.086;2023-08-17T10:03:04;36.86;30.73
67364;HTU21D;54250;45.572;38.086;2023-08-17T10:05:38;36.68;31.17
67364;HTU21D;54250;45.572;38.086;2023-08-17T10:08:06;36.54;31.52
67364;HTU21D;54250;45.572;38.086;2023-08-17T10:10:35;36.29;31.77
67364;HTU21D;54250;45.572;38.086;2023-08-17T10:13:27;36.10;31.99
67364;HTU21D;54250;45.572;38.086;2023-08-17T10:16:06;36.03;31.90
67364;HTU21D;54250;45.572;38.086;2023-08-17T10:18:45;36.02;32.76
67364;HTU21D;54250;45.572;38.086;2023-08-17T10:21:36;36.22;32.43
67364;HTU21D;54250;45.572;38.086;2023-08-17T10:24:03;36.19;32.14
67364;HTU21D;54250;45.572;38.086;2023-08-17T10:26:30;36.06;32.19
67364;HTU21D;54250;45.572;38.086;2023-08-17T10:28:57;35.83;32.70
67364;HTU21D;54250;45.572;38.086;2023-08-17T10:31:25;35.67;32.79
67364;HTU21D;54250;45.572;38.086;2023-08-17T10:33:51;35.57;32.98
67364;HTU21D;54250;45.572;38.086;2023-08-17T10:36:18;35.45;33.28
67364;HTU21D;54250;45.572;38.086;2023-08-17T10:38:45;35.37;33.55
67364;HTU21D;54250;45.572;38.086;2023-08-17T10:41:14;35.48;33.24
67364;HTU21D;54250;45.572;38.086;2023-08-17T10:43:59;35.52;32.99
67364;HTU21D;54250;45.572;38.086;2023-08-17T10:46:36;35.49;33.25
67364;HTU21D;54250;45.572;38.086;2023-08-17T10:49:05;35.59;32.98
67364;HTU21D;54250;45.572;38.086;2023-08-17T10:51:32;35.55;33.15
67364;HTU21D;54250;45.572;38.086;2023-08-17T10:54:01;35.54;33.26
67364;HTU21D;54250;45.572;38.086;2023-08-17T10:56:30;35.53;33.40
67364;HTU21D;54250;45.572;38.086;2023-08-17T10:59:00;35.48;33.20
67364;HTU21D;54250;45.572;38.086;2023-08-17T11:01:40;35.50;33.39
67364;HTU21D;54250;45.572;38.086;2023-08-17T11:04:10;35.62;33.12
67364;HTU21D;54250;45.572;38.086;2023-08-17T11:06:36;35.65;33.31
67364;HTU21D;54250;45.572;38.086;2023-08-17T11:09:07;35.67;33.41
67364;HTU21D;54250;45.572;38.086;2023-08-17T11:11:33;35.73;33.26
67364;HTU21D;54250;45.572;38.086;2023-08-17T11:13:59;35.70;33.35
67364;HTU21D;54250;45.572;38.086;2023-08-17T11:16:25;35.78;33.67
67364;HTU21D;54250;45.572;38.086;2023-08-17T11:18:51;35.74;33.32
67364;HTU21D;54250;45.572;38.086;2023-08-17T11:21:17;35.65;33.28
67364;HTU21D;54250;45.572;38.086;2023-08-17T11:23:44;35.62;33.08
67364;HTU21D;54250;45.572;38.086;2023-08-17T11:26:10;35.43;33.27
67364;HTU21D;54250;45.572;38.086;2023-08-17T11:28:36;35.38;33.34
67364;HTU21D;54250;45.572;38.086;2023-08-17T11:31:08;35.38;33.32
67364;HTU21D;54250;45.572;38.086;2023-08-17T11:33:35;35.33;33.27
67364;HTU21D;54250;45.572;38.086;2023-08-17T11:36:04;35.27;33.58
67364;HTU21D;54250;45.572;38.086;2023-08-17T11:38:38;35.30;33.52
67364;HTU21D;54250;45.572;38.086;2023-08-17T11:41:04;35.29;33.16
67364;HTU21D;54250;45.572;38.086;2023-08-17T11:43:33;35.19;33.12
67364;HTU21D;54250;45.572;38.086;2023-08-17T11:46:00;35.10;33.41
67364;HTU21D;54250;45.572;38.086;2023-08-17T11:48:26;35.13;33.34
67364;HTU21D;54250;45.572;38.086;2023-08-17T11:50:53;35.18;33.32
67364;HTU21D;54250;45.572;38.086;2023-08-17T11:53:20;35.15;33.28
67364;HTU21D;54250;45.572;38.086;2023-08-17T11:55:47;35.15;33.28
67364;HTU21D;54250;45.572;38.086;2023-08-17T11:58:12;35.16;33.48
67364;HTU21D;54250;45.572;38.086;2023-08-17T12:00:43;35.13;33.59
67364;HTU21D;54250;45.572;38.086;2023-08-17T12:03:15;35.11;33.56
67364;HTU21D;54250;45.572;38.086;2023-08-17T12:05:43;35.06;33.61
67364;HTU21D;54250;45.572;38.086;2023-08-17T12:08:09;34.99;33.33
67364;HTU21D;54250;45.572;38.086;2023-08-17T12:10:37;34.94;33.48
67364;HTU21D;54250;45.572;38.086;2023-08-17T12:13:03;34.88;33.04
67364;HTU21D;54250;45.572;38.086;2023-08-17T12:15:33;34.79;33.00
67364;HTU21D;54250;45.572;38.086;2023-08-17T12:18:02;34.73;33.41
67364;HTU21D;54250;45.572;38.086;2023-08-17T12:20:28;34.74;33.08
67364;HTU21D;54250;45.572;38.086;2023-08-17T12:22:57;34.66;33.06
67364;HTU21D;54250;45.572;38.086;2023-08-17T12:25:25;34.65;33.08
67364;HTU21D;54250;45.572;38.086;2023-08-17T12:27:51;34.63;33.25
67364;HTU21D;54250;45.572;38.086;2023-08-17T12:30:30;34.64;33.02
67364;HTU21D;54250;45.572;38.086;2023-08-17T12:33:01;34.61;33.29
67364;HTU21D;54250;45.572;38.086;2023-08-17T12:35:28;34.61;33.14
67364;HTU21D;54250;45.572;38.086;2023-08-17T12:37:54;34.61;33.06
67364;HTU21D;54250;45.572;38.086;2023-08-17T12:40:21;34.60;33.08
67364;HTU21D;54250;45.572;38.086;2023-08-17T12:42:47;34.54;32.96
67364;HTU21D;54250;45.572;38.086;2023-08-17T12:45:13;34.51;33.02
67364;HTU21D;54250;45.572;38.086;2023-08-17T12:47:40;34.49;33.25
67364;HTU21D;54250;45.572;38.086;2023-08-17T12:50:06;34.49;33.38
67364;HTU21D;54250;45.572;38.086;2023-08-17T12:52:32;34.46;33.47
67364;HTU21D;54250;45.572;38.086;2023-08-17T12:54:58;34.42;33.71
67364;HTU21D;54250;45.572;38.086;2023-08-17T12:57:24;34.41;33.44
67364;HTU21D;54250;45.572;38.086;2023-08-17T12:59:50;34.34;33.26
67364;HTU21D;54250;45.572;38.086;2023-08-17T13:02:16;34.26;33.37
67364;HTU21D;54250;45.572;38.086;2023-08-17T13:04:42;34.22;33.66
67364;HTU21D;54250;45.572;38.086;2023-08-17T13:07:08;34.21;33.34
67364;HTU21D;54250;45.572;38.086;2023-08-17T13:09:34;34.16;32.68
67364;HTU21D;54250;45.572;38.086;2023-08-17T13:12:00;34.16;32.79
67364;HTU21D;54250;45.572;38.086;2023-08-17T13:14:26;34.18;32.92
67364;HTU21D;54250;45.572;38.086;2023-08-17T13:16:52;34.15;33.01
67364;HTU21D;54250;45.572;38.086;2023-08-17T13:19:20;34.12;33.49
67364;HTU21D;54250;45.572;38.086;2023-08-17T13:21:46;34.10;33.79
67364;HTU21D;54250;45.572;38.086;2023-08-17T13:24:12;34.11;34.16
67364;HTU21D;54250;45.572;38.086;2023-08-17T13:26:38;34.10;34.13
67364;HTU21D;54250;45.572;38.086;2023-08-17T13:29:04;34.06;34.10
67364;HTU21D;54250;45.572;38.086;2023-08-17T13:31:30;34.06;33.96
67364;HTU21D;54250;45.572;38.086;2023-08-17T13:33:59;34.02;33.99
67364;HTU21D;54250;45.572;38.086;2023-08-17T13:36:25;33.99;34.23
67364;HTU21D;54250;45.572;38.086;2023-08-17T13:38:51;33.94;34.52
67364;HTU21D;54250;45.572;38.086;2023-08-17T13:41:17;33.90;34.71
67364;HTU21D;54250;45.572;38.086;2023-08-17T13:43:43;33.85;35.00
67364;HTU21D;54250;45.572;38.086;2023-08-17T13:46:09;33.78;35.24
67364;HTU21D;54250;45.572;38.086;2023-08-17T13:48:35;33.74;34.95
67364;HTU21D;54250;45.572;38.086;2023-08-17T13:51:04;33.68;35.06
67364;HTU21D;54250;45.572;38.086;2023-08-17T13:53:31;33.67;35.25
67364;HTU21D;54250;45.572;38.086;2023-08-17T13:55:57;33.62;35.44
67364;HTU21D;54250;45.572;38.086;2023-08-17T13:58:24;33.60;35.61
67364;HTU21D;54250;45.572;38.086;2023-08-17T14:00:50;33.56;35.58
67364;HTU21D;54250;45.572;38.086;2023-08-17T14:03:16;33.55;35.95
67364;HTU21D;54250;45.572;38.086;2023-08-17T14:05:42;33.49;36.17
67364;HTU21D;54250;45.572;38.086;2023-08-17T14:08:08;33.45;36.32
67364;HTU21D;54250;45.572;38.086;2023-08-17T14:10:36;33.41;36.43
67364;HTU21D;54250;45.572;38.086;2023-08-17T14:13:02;33.37;36.63
67364;HTU21D;54250;45.572;38.086;2023-08-17T14:15:28;33.31;36.76
67364;HTU21D;54250;45.572;38.086;2023-08-17T14:17:54;33.25;36.87
67364;HTU21D;54250;45.572;38.086;2023-08-17T14:20:20;33.20;37.11
67364;HTU21D;54250;45.572;38.086;2023-08-17T14:22:47;33.13;37.30
67364;HTU21D;54250;45.572;38.086;2023-08-17T14:25:13;33.08;37.56
67364;HTU21D;54250;45.572;38.086;2023-08-17T14:27:39;33.04;37.66
67364;HTU21D;54250;45.572;38.086;2023-08-17T14:30:05;32.98;37.82
67364;HTU21D;54250;45.572;38.086;2023-08-17T14:32:32;32.92;38.01
67364;HTU21D;54250;45.572;38.086;2023-08-17T14:34:58;32.88;38.01
67364;HTU21D;54250;45.572;38.086;2023-08-17T14:37:24;32.84;37.98
67364;HTU21D;54250;45.572;38.086;2023-08-17T14:39:50;32.78;38.11
67364;HTU21D;54250;45.572;38.086;2023-08-17T14:42:16;32.74;38.12
67364;HTU21D;54250;45.572;38.086;2023-08-17T14:44:42;32.70;38.33
67364;HTU21D;54250;45.572;38.086;2023-08-17T14:47:09;32.62;38.57
67364;HTU21D;54250;45.572;38.086;2023-08-17T14:49:36;32.56;38.66
67364;HTU21D;54250;45.572;38.086;2023-08-17T14:52:02;32.50;38.69
67364;HTU21D;54250;45.572;38.086;2023-08-17T14:54:28;32.47;38.71
67364;HTU21D;54250;45.572;38.086;2023-08-17T14:56:54;32.41;38.71
67364;HTU21D;54250;45.572;38.086;2023-08-17T14:59:20;32.35;38.82
67364;HTU21D;54250;45.572;38.086;2023-08-17T15:01:46;32.27;38.93
67364;HTU21D;54250;45.572;38.086;2023-08-17T15:04:12;32.19;39.18